Urb Sombras del Real, Puerto Rico
Current Conditions -  °F | °C
As of 1:56 PM on Thursday 23 Oct 2014 (Local Time) from TJSJ Reporting Station
Scattered Clouds Scattered Clouds  
Wind Chill: 87°   Ceiling: Unl
Heat Index: 97°   Visibility: 10mi
Dew Point: 76°   Wind: 15mph
Humidity: 69%   Direction: 60°ENE
Pressure: 29.88"   Gusts: NA
Location:  18.0474°N, 66.5517°W
Report Text: TJSJ 231756Z 06013KT 10SM FEW038 SCT050 SCT070 31/24 A2988 RMK AO2 SLP116 T03060244 10322 20278 56022
Loading
Personal Weather Stations






























Interactive Weather Map
Tropical Storm Tracking
New forecast layout! Learn more

10-Day Weather Forecast

Advertisements
Track Severe Weather on mobile